Time;durP1;ratioP1;P1;durP2;ratioP2;P2;SDS_P1;SDS_P2;PMS_P1;PMS_P2;Temp;Humidity;BMP_temperature;BMP_pressure;BME280_temperature;BME280_humidity;BME280_pressure;Samples;Min_cycle;Max_cycle;Signal;HPM_P1;HPM_P2
2021/09/27 00:01:39;;;;;;;18.23;16.70;;;;;;;19.34;81.72;101496.78;6127598;28;20349;-52
2021/09/27 00:05:00;;;;;;;18.55;17.05;;;;;;;19.13;82.75;101498.38;6129466;28;20257;-53
2021/09/27 00:08:21;;;;;;;17.85;16.52;;;;;;;19.44;81.65;101488.50;6129067;28;20357;-54
2021/09/27 00:11:42;;;;;;;19.42;17.58;;;;;;;19.42;81.24;101487.66;6127636;28;20334;-54
2021/09/27 00:15:07;;;;;;;18.80;17.30;;;;;;;19.18;83.25;101493.81;6129311;28;20243;-49
2021/09/27 00:18:28;;;;;;;18.98;17.48;;;;;;;19.20;82.74;101494.63;6129594;28;20239;-51
2021/09/27 00:21:49;;;;;;;17.88;16.17;;;;;;;19.25;82.33;101488.25;6130119;28;20235;-52
2021/09/27 00:25:12;;;;;;;15.50;14.30;;;;;;;19.58;80.82;101471.25;6128679;28;20231;-52
2021/09/27 00:28:33;;;;;;;19.48;17.67;;;;;;;19.48;81.03;101479.53;6129518;28;20235;-49
2021/09/27 00:31:55;;;;;;;16.67;15.10;;;;;;;19.68;80.08;101477.94;6126692;28;20227;-51
2021/09/27 00:35:20;;;;;;;17.08;15.68;;;;;;;19.70;79.91;101477.88;6125186;28;20215;-52
2021/09/27 00:38:41;;;;;;;18.42;16.77;;;;;;;19.20;82.25;101465.56;6125336;28;20239;-51
2021/09/27 00:42:02;;;;;;;21.05;19.25;;;;;;;19.43;81.74;101462.13;6129001;28;20576;-53
2021/09/27 00:45:26;;;;;;;17.20;15.90;;;;;;;19.70;80.47;101452.31;6137078;28;20907;-52
2021/09/27 00:48:48;;;;;;;17.77;16.27;;;;;;;19.76;79.96;101449.47;6133946;28;20671;-53
2021/09/27 00:52:10;;;;;;;18.95;17.13;;;;;;;19.92;79.20;101459.47;6132563;28;20538;-52
2021/09/27 00:55:31;;;;;;;18.23;16.67;;;;;;;19.75;79.99;101447.75;6136570;29;20251;-53
2021/09/27 00:58:54;;;;;;;17.15;15.73;;;;;;;20.04;78.67;101446.63;6140228;28;21665;-51
2021/09/27 01:02:16;;;;;;;18.27;16.63;;;;;;;19.73;80.40;101448.72;6133382;28;20306;-53
2021/09/27 01:05:49;;;;;;;16.73;15.43;;;;;;;19.81;79.77;101442.25;6141870;29;20223;-54
2021/09/27 01:09:21;;;;;;;17.30;15.82;;;;;;;19.95;78.70;101439.09;6135044;28;20692;-54
2021/09/27 01:12:56;;;;;;;16.15;14.70;;;;;;;19.94;79.20;101439.13;6133959;28;20234;-48
2021/09/27 01:16:25;;;;;;;16.58;15.27;;;;;;;20.04;78.80;101445.78;6134660;29;20227;-55
2021/09/27 01:20:14;;;;;;;17.23;15.73;;;;;;;19.99;78.82;101440.69;6124614;28;20628;-54
2021/09/27 01:24:13;;;;;;;16.52;15.30;;;;;;;20.21;77.81;101429.25;6131261;28;20520;-54
2021/09/27 01:28:01;;;;;;;17.17;15.70;;;;;;;20.12;78.11;101435.75;6137175;28;20243;-50
2021/09/27 01:31:59;;;;;;;18.48;16.88;;;;;;;19.82;79.35;101427.25;6121297;28;20235;-50
2021/09/27 01:35:45;;;;;;;18.52;17.13;;;;;;;20.10;78.43;101421.75;6130455;29;20231;-53
2021/09/27 01:39:12;;;;;;;19.10;17.45;;;;;;;20.30;77.24;101433.31;6125076;28;20258;-52
2021/09/27 01:42:39;;;;;;;20.23;18.42;;;;;;;19.68;80.43;101441.81;6126138;28;20227;-55
2021/09/27 01:46:09;;;;;;;20.08;18.33;;;;;;;19.51;82.19;101448.63;6128985;28;20661;-53
2021/09/27 01:49:36;;;;;;;21.05;19.10;;;;;;;19.94;80.01;101444.44;6125356;29;20321;-50
2021/09/27 01:53:02;;;;;;;19.13;17.60;;;;;;;20.06;79.25;101439.53;6125733;28;21442;-52
2021/09/27 01:56:32;;;;;;;19.10;17.27;;;;;;;20.09;78.59;101440.34;6126729;28;20263;-53
2021/09/27 02:00:00;;;;;;;19.52;17.90;;;;;;;20.23;77.97;101433.56;6118884;28;20865;-54
2021/09/27 02:03:25;;;;;;;19.88;17.95;;;;;;;20.11;78.72;101428.78;6129659;28;20250;-50
2021/09/27 02:06:49;;;;;;;20.45;18.65;;;;;;;19.80;80.18;101437.88;6132570;28;20395;-56
2021/09/27 02:10:16;;;;;;;19.88;18.42;;;;;;;19.59;81.02;101438.66;6130012;29;20211;-49
2021/09/27 02:13:47;;;;;;;24.58;22.60;;;;;;;19.39;83.01;101449.94;6125672;28;20239;-52
2021/09/27 02:17:12;;;;;;;22.58;20.75;;;;;;;19.07;84.19;101444.84;6122531;28;20219;-51
2021/09/27 02:20:39;;;;;;;19.35;17.85;;;;;;;19.36;83.44;101448.25;6131237;28;20320;-51
2021/09/27 02:24:05;;;;;;;25.88;23.55;;;;;;;19.20;84.26;101455.00;6129123;28;20366;-50
2021/09/27 02:27:28;;;;;;;25.80;23.67;;;;;;;19.37;84.00;101452.63;6135364;28;20239;-55
2021/09/27 02:30:55;;;;;;;24.10;22.13;;;;;;;19.65;82.40;101447.19;6124836;28;20306;-49
2021/09/27 02:34:23;;;;;;;24.88;22.65;;;;;;;19.57;82.86;101454.53;6125157;28;20238;-50
2021/09/27 02:37:52;;;;;;;22.40;20.58;;;;;;;19.41;83.98;101454.25;6129771;28;20239;-55
2021/09/27 02:41:21;;;;;;;25.77;23.63;;;;;;;19.19;85.32;101448.88;6123988;28;20219;-51
2021/09/27 02:44:44;;;;;;;26.98;24.48;;;;;;;19.38;84.36;101454.34;6133350;28;20704;-51
2021/09/27 02:48:13;;;;;;;22.08;20.27;;;;;;;19.65;83.75;101439.28;6131634;28;20247;-50
2021/09/27 02:51:34;;;;;;;22.95;21.15;;;;;;;19.90;81.78;101430.47;6126960;28;20231;-51
2021/09/27 02:55:01;;;;;;;23.45;21.25;;;;;;;19.98;81.14;101427.53;6127488;28;20549;-53
2021/09/27 02:58:28;;;;;;;23.88;21.92;;;;;;;20.09;80.14;101420.03;6128422;28;20330;-54
2021/09/27 03:01:56;;;;;;;23.35;21.40;;;;;;;20.19;79.89;101434.59;6129286;28;20232;-53
2021/09/27 03:05:30;;;;;;;23.27;21.27;;;;;;;19.98;80.33;101438.09;6131861;28;21765;-52
2021/09/27 03:09:03;;;;;;;22.88;20.90;;;;;;;20.10;80.06;101432.31;6130426;28;20238;-50
2021/09/27 03:12:35;;;;;;;20.67;18.77;;;;;;;20.06;79.85;101443.94;6132699;28;20227;-53
2021/09/27 03:16:08;;;;;;;22.65;20.48;;;;;;;20.22;79.29;101450.38;6126432;29;20242;-52
2021/09/27 03:19:48;;;;;;;20.80;18.98;;;;;;;20.20;79.05;101454.84;6128807;29;20220;-51
2021/09/27 03:23:18;;;;;;;21.23;19.33;;;;;;;20.27;78.77;101461.59;6133165;28;20531;-50
2021/09/27 03:26:52;;;;;;;25.75;23.65;;;;;;;20.10;79.60;101460.56;6130841;28;20203;-52
2021/09/27 03:30:19;;;;;;;19.90;18.40;;;;;;;19.70;81.60;101460.25;6134626;29;20219;-55
2021/09/27 03:33:53;;;;;;;22.35;20.33;;;;;;;19.99;80.38;101469.75;6123750;28;20235;-51
2021/09/27 03:37:28;;;;;;;19.98;18.10;;;;;;;20.03;80.17;101468.72;6125111;28;20239;-50
2021/09/27 03:40:59;;;;;;;18.83;17.30;;;;;;;20.07;79.74;101469.47;6123789;28;20207;-53
2021/09/27 03:44:30;;;;;;;22.60;20.70;;;;;;;19.97;79.97;101466.31;6122473;28;21309;-52
2021/09/27 03:48:01;;;;;;;21.90;20.05;;;;;;;19.78;80.98;101460.00;6136600;28;20862;-51
2021/09/27 03:51:27;;;;;;;19.85;18.08;;;;;;;19.84;80.95;101457.13;6127820;28;20547;-55
2021/09/27 03:54:55;;;;;;;17.25;15.85;;;;;;;20.02;80.05;101455.56;6129364;29;20577;-50
2021/09/27 03:58:23;;;;;;;18.33;16.75;;;;;;;20.16;78.85;101449.72;6132538;28;20697;-53
2021/09/27 04:01:55;;;;;;;20.77;19.08;;;;;;;19.81;80.79;101447.53;6123974;28;20636;-50
2021/09/27 04:05:23;;;;;;;20.55;18.85;;;;;;;20.02;79.99;101450.28;6127310;28;20846;-49
2021/09/27 04:08:51;;;;;;;25.48;22.77;;;;;;;19.95;80.19;101454.06;6126117;28;20226;-48
2021/09/27 04:12:27;;;;;;;20.23;18.63;;;;;;;19.72;80.93;101447.88;6125254;28;20242;-51
2021/09/27 04:16:09;;;;;;;21.75;20.00;;;;;;;19.80;81.64;101451.09;6124292;28;20687;-52
2021/09/27 04:19:42;;;;;;;22.75;20.95;;;;;;;19.28;83.46;101452.97;6124232;28;20751;-52
2021/09/27 04:23:14;;;;;;;21.88;20.08;;;;;;;19.59;83.08;101451.84;6124292;28;20238;-50
2021/09/27 04:26:55;;;;;;;20.20;18.48;;;;;;;19.68;82.04;101448.88;6121613;28;20227;-53
2021/09/27 04:30:49;;;;;;;18.88;17.17;;;;;;;19.91;80.64;101436.59;6120658;28;20259;-53
2021/09/27 04:34:34;;;;;;;19.70;18.13;;;;;;;19.82;80.09;101438.69;6116452;28;20235;-53
2021/09/27 04:37:55;;;;;;;17.83;16.42;;;;;;;19.77;80.83;101435.34;6128756;28;20235;-53
2021/09/27 04:41:36;;;;;;;18.60;17.17;;;;;;;19.41;82.19;101434.91;6126869;29;20203;-54
2021/09/27 04:45:21;;;;;;;22.00;19.88;;;;;;;19.32;82.75;101422.03;6129047;28;20589;-53
2021/09/27 04:48:58;;;;;;;22.02;20.13;;;;;;;18.94;84.58;101425.09;6122731;28;20499;-54
2021/09/27 04:52:33;;;;;;;21.50;19.70;;;;;;;19.13;84.21;101427.09;6119326;28;20270;-52
2021/09/27 04:56:08;;;;;;;21.23;19.42;;;;;;;19.05;84.14;101420.28;6126318;29;20230;-54
2021/09/27 04:59:40;;;;;;;21.70;19.95;;;;;;;19.26;83.64;101417.81;6134418;28;20235;-54
2021/09/27 05:03:20;;;;;;;19.20;17.50;;;;;;;19.53;81.93;101418.59;6122673;28;20223;-52
2021/09/27 05:07:06;;;;;;;20.33;18.45;;;;;;;19.40;82.86;101423.47;6132294;28;20227;-55
2021/09/27 05:11:10;;;;;;;20.30;18.55;;;;;;;19.05;84.23;101419.44;6128248;29;21021;-50
2021/09/27 05:14:47;;;;;;;22.85;20.95;;;;;;;19.15;83.53;101425.25;6131956;28;20235;-54
2021/09/27 05:18:54;;;;;;;19.90;18.15;;;;;;;19.54;81.93;101416.81;6132503;28;20235;-54
2021/09/27 05:22:34;;;;;;;22.00;19.95;;;;;;;19.28;83.21;101427.41;6132536;28;20239;-53
2021/09/27 05:26:24;;;;;;;21.23;19.20;;;;;;;19.16;84.32;101416.44;6130758;29;20223;-52
2021/09/27 05:30:02;;;;;;;19.33;17.80;;;;;;;19.12;84.45;101409.53;6134651;29;20742;-54
2021/09/27 05:33:35;;;;;;;21.23;19.50;;;;;;;18.61;87.89;101416.50;6134332;28;20235;-53
2021/09/27 05:37:22;;;;;;;23.35;21.10;;;;;;;19.01;86.08;101402.84;6133549;28;20235;-51
2021/09/27 05:40:58;;;;;;;24.15;21.85;;;;;;;19.28;84.32;101397.50;6133436;28;20283;-54
2021/09/27 05:44:39;;;;;;;23.73;21.83;;;;;;;19.38;83.79;101396.25;6134257;28;20326;-54
2021/09/27 05:48:07;;;;;;;24.75;22.65;;;;;;;19.60;82.81;101391.03;6127990;28;20231;-53
2021/09/27 05:51:33;;;;;;;24.50;22.45;;;;;;;19.92;81.52;101385.47;6071104;28;20230;-52
2021/09/27 05:55:01;;;;;;;21.42;19.73;;;;;;;19.90;80.91;101396.09;6124311;29;20231;-54
2021/09/27 05:58:30;;;;;;;21.75;19.23;;;;;;;19.71;81.52;101403.84;6127442;28;20751;-53
2021/09/27 06:02:02;;;;;;;22.42;20.75;;;;;;;19.52;82.90;101408.94;6128956;28;20577;-50
2021/09/27 06:05:29;;;;;;;26.13;23.70;;;;;;;19.64;82.61;101405.84;6129499;28;20235;-50
2021/09/27 06:08:59;;;;;;;21.45;19.63;;;;;;;19.75;82.64;101410.75;6129273;28;20231;-53
2021/09/27 06:12:25;;;;;;;26.27;24.05;;;;;;;19.64;82.48;101407.66;6130344;28;20356;-52
2021/09/27 06:15:50;;;;;;;23.10;20.98;;;;;;;19.43;84.32;101409.31;6133248;28;20200;-50
2021/09/27 06:19:16;;;;;;;23.90;21.88;;;;;;;19.33;84.50;101402.59;6132213;28;20227;-49
2021/09/27 06:23:04;;;;;;;24.10;22.13;;;;;;;19.48;82.96;101408.22;6133182;28;20291;-49
2021/09/27 06:26:29;;;;;;;36.50;33.38;;;;;;;19.57;83.09;101406.16;6126364;28;20207;-52
2021/09/27 06:29:57;;;;;;;23.17;21.25;;;;;;;19.72;82.18;101399.47;6133840;28;20223;-55
2021/09/27 06:33:26;;;;;;;23.63;21.75;;;;;;;20.02;80.82;101400.03;6131131;28;20227;-53
2021/09/27 06:36:48;;;;;;;25.08;22.98;;;;;;;20.08;80.16;101402.44;6131748;28;20302;-54
2021/09/27 06:40:11;;;;;;;26.00;23.83;;;;;;;19.85;80.80;101404.22;6131935;28;20232;-54
2021/09/27 06:43:32;;;;;;;23.73;21.55;;;;;;;19.89;80.48;101396.16;6130213;28;20547;-52
2021/09/27 06:46:54;;;;;;;26.08;23.90;;;;;;;19.99;80.34;101393.09;6134146;28;20235;-52
2021/09/27 06:50:17;;;;;;;25.33;23.15;;;;;;;19.98;80.22;101386.09;6126867;28;20204;-52
2021/09/27 06:53:38;;;;;;;21.92;19.95;;;;;;;19.94;80.20;101383.63;6129950;28;20235;-51
2021/09/27 06:56:59;;;;;;;22.70;20.90;;;;;;;19.73;81.56;101380.88;6134674;28;20235;-48
2021/09/27 07:00:21;;;;;;;23.80;21.75;;;;;;;19.94;80.93;101389.78;6133495;28;20231;-51
2021/09/27 07:03:41;;;;;;;26.58;24.23;;;;;;;19.74;81.37;101398.47;6130570;28;20633;-48
2021/09/27 07:07:04;;;;;;;25.80;23.73;;;;;;;19.40;83.31;101398.84;6133131;28;20235;-48
2021/09/27 07:10:26;;;;;;;27.08;24.50;;;;;;;19.04;84.97;101391.34;6133665;28;20238;-51
2021/09/27 07:13:46;;;;;;;27.60;25.13;;;;;;;19.26;84.11;101400.19;6130942;28;20683;-50
2021/09/27 07:17:08;;;;;;;29.48;26.90;;;;;;;19.14;85.42;101391.88;6130807;28;20238;-53
2021/09/27 07:20:29;;;;;;;31.48;28.63;;;;;;;19.21;84.99;101398.63;6131947;28;20538;-54
2021/09/27 07:23:53;;;;;;;32.88;30.13;;;;;;;19.51;83.15;101401.94;6127227;28;20236;-50
2021/09/27 07:27:14;;;;;;;30.80;27.98;;;;;;;19.23;84.60;101404.72;6121959;28;20307;-49
2021/09/27 07:30:36;;;;;;;30.75;27.88;;;;;;;19.21;84.66;101406.56;6122613;28;20223;-51
2021/09/27 07:33:58;;;;;;;31.38;28.75;;;;;;;18.98;86.43;101392.41;6133303;28;20533;-51
2021/09/27 07:37:19;;;;;;;25.52;23.23;;;;;;;19.29;84.51;101399.25;6135689;28;20291;-49
2021/09/27 07:40:41;;;;;;;29.13;26.52;;;;;;;19.16;84.81;101384.75;6132191;29;20216;-51
2021/09/27 07:44:02;;;;;;;27.15;24.35;;;;;;;19.54;83.30;101390.41;6134092;28;20231;-52
2021/09/27 07:47:22;;;;;;;28.70;26.25;;;;;;;19.63;83.14;101393.56;6137336;28;20502;-55
2021/09/27 07:50:46;;;;;;;28.05;25.35;;;;;;;19.58;83.26;101397.28;6136595;28;20227;-51
2021/09/27 07:54:08;;;;;;;28.27;25.88;;;;;;;19.74;82.51;101393.19;6129260;28;20618;-52
2021/09/27 07:57:30;;;;;;;28.88;26.45;;;;;;;19.08;85.46;101393.81;6134118;28;20231;-52
2021/09/27 08:00:52;;;;;;;27.13;24.60;;;;;;;19.39;84.26;101403.25;6139752;28;20235;-49
2021/09/27 08:04:15;;;;;;;27.20;24.63;;;;;;;19.82;82.24;101406.13;6135131;28;20772;-51
2021/09/27 08:07:36;;;;;;;25.38;23.00;;;;;;;20.22;79.82;101410.69;6134227;29;20826;-53
2021/09/27 08:10:57;;;;;;;27.85;25.25;;;;;;;19.81;81.31;101412.31;6131610;29;20199;-50
2021/09/27 08:14:19;;;;;;;27.05;24.75;;;;;;;19.33;83.36;101407.88;6130330;28;20259;-49
2021/09/27 08:17:41;;;;;;;27.25;24.85;;;;;;;19.48;83.69;101408.22;6130742;28;20234;-50
2021/09/27 08:21:05;;;;;;;26.45;24.10;;;;;;;19.82;81.56;101416.69;6130368;29;20211;-51
2021/09/27 08:24:26;;;;;;;26.38;24.13;;;;;;;19.69;82.37;101400.38;6116032;28;20255;-51
2021/09/27 08:27:47;;;;;;;27.08;24.52;;;;;;;19.90;81.54;101405.81;6130031;28;20869;-51
2021/09/27 08:31:14;;;;;;;25.38;22.95;;;;;;;19.74;82.34;101402.91;6132186;28;20608;-50
2021/09/27 08:34:35;;;;;;;26.40;24.02;;;;;;;19.32;83.88;101414.97;6131804;28;20219;-50
2021/09/27 08:37:57;;;;;;;28.75;26.10;;;;;;;19.23;84.37;101415.28;6132572;28;20231;-54
2021/09/27 08:41:24;;;;;;;28.30;25.90;;;;;;;19.23;85.20;101415.28;6132867;28;20306;-48
2021/09/27 08:44:49;;;;;;;29.85;27.15;;;;;;;19.19;85.27;101417.19;6133469;28;20273;-49
2021/09/27 08:48:25;;;;;;;31.25;28.55;;;;;;;18.85;87.70;101421.00;6126445;28;20234;-50
2021/09/27 08:51:46;;;;;;;29.48;26.90;;;;;;;19.21;85.67;101427.69;6126928;28;20333;-52
2021/09/27 08:55:12;;;;;;;29.25;26.63;;;;;;;19.24;84.69;101425.78;6131143;28;20599;-54
2021/09/27 08:58:42;;;;;;;31.13;28.38;;;;;;;19.00;86.71;101422.25;6130221;28;20224;-53
2021/09/27 09:02:12;;;;;;;28.45;25.90;;;;;;;19.03;86.35;101421.28;6135205;28;20231;-51
2021/09/27 09:05:40;;;;;;;30.90;28.08;;;;;;;19.34;84.65;101425.47;6119939;29;20216;-48
2021/09/27 09:09:08;;;;;;;28.80;25.98;;;;;;;19.52;83.68;101432.72;6134602;28;20313;-54
2021/09/27 09:12:34;;;;;;;28.83;26.23;;;;;;;19.84;81.88;101420.97;6125757;28;20567;-52
2021/09/27 09:16:01;;;;;;;27.80;25.23;;;;;;;20.17;80.76;101422.38;6133062;28;20227;-54
2021/09/27 09:19:26;;;;;;;27.60;24.95;;;;;;;19.58;82.92;101421.94;6135263;28;20231;-49
2021/09/27 09:22:49;;;;;;;23.92;21.73;;;;;;;20.19;81.06;101416.09;6133622;28;20247;-55
2021/09/27 09:26:14;;;;;;;26.35;23.75;;;;;;;19.86;81.52;101415.66;6137784;28;20235;-54
2021/09/27 09:29:40;;;;;;;29.17;26.50;;;;;;;19.82;82.64;101417.53;6135538;28;20321;-52
2021/09/27 09:33:01;;;;;;;27.13;24.85;;;;;;;20.12;81.42;101419.91;6133764;28;20255;-51
2021/09/27 09:36:25;;;;;;;27.42;25.00;;;;;;;20.30;80.61;101417.44;6132069;28;20566;-50
2021/09/27 09:39:58;;;;;;;28.23;25.73;;;;;;;20.13;81.56;101413.69;6133090;28;20306;-54
2021/09/27 09:43:28;;;;;;;26.95;24.35;;;;;;;19.94;82.07;101412.69;6131117;28;20254;-52
2021/09/27 09:46:59;;;;;;;30.40;27.67;;;;;;;20.02;82.29;101415.91;6129006;28;20231;-50
2021/09/27 09:50:30;;;;;;;25.25;22.63;;;;;;;20.46;80.46;101406.19;6130113;28;20207;-54
2021/09/27 09:54:10;;;;;;;27.33;24.80;;;;;;;20.95;78.00;101405.94;6127030;28;20242;-50
2021/09/27 09:57:36;;;;;;;25.58;23.27;;;;;;;21.02;77.34;101399.44;6129691;28;20228;-54
2021/09/27 10:01:03;;;;;;;29.77;27.27;;;;;;;20.77;77.85;101402.28;6132843;28;20219;-53
2021/09/27 10:04:29;;;;;;;27.38;24.50;;;;;;;20.89;78.28;101395.63;6135840;28;20218;-53
2021/09/27 10:07:52;;;;;;;28.88;26.13;;;;;;;20.62;78.18;101402.94;6136620;28;20226;-54
2021/09/27 10:11:24;;;;;;;28.38;25.88;;;;;;;21.00;77.99;101390.72;6129871;28;20551;-52
2021/09/27 10:14:46;;;;;;;24.63;22.27;;;;;;;22.11;72.57;101398.94;6120132;28;20655;-59
2021/09/27 10:18:16;;;;;;;23.50;21.23;;;;;;;23.93;66.27;101379.78;6114820;28;20532;-54
2021/09/27 10:21:37;;;;;;;24.45;22.25;;;;;;;24.29;63.61;101380.44;6123173;28;20411;-57
2021/09/27 10:25:00;;;;;;;26.52;24.10;;;;;;;23.33;66.06;101379.53;6132552;28;20235;-57
2021/09/27 10:28:22;;;;;;;22.40;20.27;;;;;;;22.96;67.12;101381.47;6125403;28;20227;-56
2021/09/27 10:31:52;;;;;;;27.80;25.23;;;;;;;21.41;72.88;101387.16;6135359;28;20594;-57
2021/09/27 10:35:29;;;;;;;24.45;22.55;;;;;;;22.00;71.69;101390.63;6132567;28;20589;-57
2021/09/27 10:38:54;;;;;;;25.90;23.60;;;;;;;21.86;72.26;101387.78;6129175;28;20227;-55
2021/09/27 10:42:20;;;;;;;26.35;23.92;;;;;;;21.62;72.58;101382.69;6130639;28;20219;-57
2021/09/27 10:45:44;;;;;;;28.33;25.85;;;;;;;21.83;72.50;101381.69;6137459;28;20605;-58
2021/09/27 10:49:14;;;;;;;27.63;24.65;;;;;;;21.71;72.02;101369.00;6136356;28;20243;-58
2021/09/27 10:52:44;;;;;;;26.80;24.35;;;;;;;21.75;72.76;101373.25;6132918;28;20279;-56
2021/09/27 10:56:13;;;;;;;24.40;22.30;;;;;;;22.17;68.93;101372.09;6126484;28;20250;-58
2021/09/27 10:59:44;;;;;;;24.75;22.35;;;;;;;24.47;62.53;101363.41;6130455;28;20535;-56
2021/09/27 11:03:15;;;;;;;25.98;23.40;;;;;;;23.77;63.42;101369.13;6129446;28;20231;-57
2021/09/27 11:06:43;;;;;;;26.17;23.67;;;;;;;22.80;66.01;101362.81;6127879;28;20207;-53
2021/09/27 11:10:15;;;;;;;24.83;22.52;;;;;;;22.46;67.58;101367.19;6140229;29;20212;-53
2021/09/27 11:13:40;;;;;;;24.20;22.10;;;;;;;22.38;67.63;101367.56;6138437;28;20219;-53
2021/09/27 11:17:15;;;;;;;22.75;20.55;;;;;;;26.41;54.93;101356.63;6131610;28;20243;-54
2021/09/27 11:20:59;;;;;;;22.10;20.23;;;;;;;27.19;51.31;101353.06;6134652;29;20294;-48
2021/09/27 11:24:49;;;;;;;19.83;18.17;;;;;;;27.02;51.83;101350.72;6136620;28;20684;-54
2021/09/27 11:28:30;;;;;;;19.40;17.90;;;;;;;29.75;44.34;101347.16;6145788;28;20231;-52
2021/09/27 11:32:18;;;;;;;20.23;18.10;;;;;;;26.82;51.64;101349.44;6140308;28;20231;-52
2021/09/27 11:35:41;;;;;;;20.13;18.27;;;;;;;27.52;49.85;101343.63;6143919;28;20326;-51
2021/09/27 11:39:28;;;;;;;19.33;17.73;;;;;;;26.06;52.18;101346.50;6133098;28;20798;-53
2021/09/27 11:42:55;;;;;;;20.25;18.67;;;;;;;24.75;56.75;101341.31;6130258;28;20231;-53
2021/09/27 11:46:23;;;;;;;20.40;18.70;;;;;;;23.39;61.23;101347.31;6130367;28;20603;-52
2021/09/27 11:49:59;;;;;;;19.35;17.75;;;;;;;24.09;59.26;101342.53;6121326;28;20572;-50
2021/09/27 11:53:33;;;;;;;18.88;17.17;;;;;;;25.03;56.24;101338.78;6126986;28;20231;-50
2021/09/27 11:57:07;;;;;;;21.45;19.55;;;;;;;24.75;57.34;101329.81;6127979;28;20235;-52
2021/09/27 12:00:37;;;;;;;19.05;17.55;;;;;;;24.91;56.06;101330.63;6120579;28;20231;-53
2021/09/27 12:04:02;;;;;;;19.33;17.70;;;;;;;24.46;56.77;101340.38;6121542;28;20235;-53
2021/09/27 12:07:28;;;;;;;20.08;18.42;;;;;;;25.05;55.85;101331.56;6125366;28;20231;-54
2021/09/27 12:10:53;;;;;;;21.00;19.25;;;;;;;24.31;58.00;101333.28;6123904;28;20223;-53
2021/09/27 12:14:21;;;;;;;18.77;17.02;;;;;;;24.47;57.82;101327.94;6129128;28;20907;-53
2021/09/27 12:17:43;;;;;;;17.35;15.85;;;;;;;25.77;53.80;101339.50;6131318;28;20231;-54
2021/09/27 12:21:10;;;;;;;21.05;19.40;;;;;;;24.78;56.36;101324.31;6120978;28;20212;-53
2021/09/27 12:24:34;;;;;;;17.77;16.23;;;;;;;25.17;55.14;101320.16;6124161;28;20239;-52
2021/09/27 12:28:00;;;;;;;19.50;17.60;;;;;;;25.20;53.74;101314.59;6120571;28;21636;-49
2021/09/27 12:31:22;;;;;;;17.35;15.77;;;;;;;25.35;54.32;101318.16;6124413;28;20215;-55
2021/09/27 12:34:46;;;;;;;17.85;16.55;;;;;;;24.12;58.01;101315.75;6120767;28;20223;-53
2021/09/27 12:38:08;;;;;;;17.17;15.65;;;;;;;23.28;60.20;101315.16;6120012;28;20322;-52
2021/09/27 12:41:29;;;;;;;20.67;18.90;;;;;;;23.34;60.04;101323.66;6119964;28;20666;-52
2021/09/27 12:44:55;;;;;;;16.95;15.40;;;;;;;24.21;58.01;101310.84;6130572;28;20245;-50
2021/09/27 12:48:22;;;;;;;17.02;15.70;;;;;;;23.28;60.10;101318.66;6136435;28;20223;-54
2021/09/27 12:51:47;;;;;;;16.15;14.88;;;;;;;23.28;60.02;101312.50;6139760;28;20230;-52
2021/09/27 12:55:11;;;;;;;15.52;14.43;;;;;;;23.54;59.15;101319.03;6141254;28;20215;-51
2021/09/27 12:58:37;;;;;;;16.17;14.95;;;;;;;25.62;53.59;101312.84;6139223;28;20767;-50
2021/09/27 13:02:01;;;;;;;14.82;13.63;;;;;;;24.23;55.31;101300.97;6138790;28;20238;-52
2021/09/27 13:05:27;;;;;;;12.77;11.70;;;;;;;22.81;59.06;101303.44;6134431;29;20305;-55
2021/09/27 13:08:50;;;;;;;14.38;13.00;;;;;;;22.45;60.84;101304.44;6129235;28;20231;-53
2021/09/27 13:12:16;;;;;;;13.95;12.77;;;;;;;22.93;59.67;101302.78;6130546;28;20601;-49
2021/09/27 13:15:42;;;;;;;15.23;13.60;;;;;;;23.57;58.14;101294.94;6117820;29;20575;-52
2021/09/27 13:19:06;;;;;;;14.95;13.75;;;;;;;22.73;60.40;101297.69;6121532;28;21864;-53
2021/09/27 13:22:39;;;;;;;19.33;15.13;;;;;;;22.83;60.41;101296.25;6125553;28;21564;-53
2021/09/27 13:26:04;;;;;;;16.02;14.48;;;;;;;22.71;60.72;101296.91;6133652;28;20739;-47
2021/09/27 13:29:38;;;;;;;15.15;13.57;;;;;;;23.16;60.09;101300.75;6145006;28;20714;-51
2021/09/27 13:33:01;;;;;;;16.65;15.35;;;;;;;23.43;59.36;101300.19;6135379;28;20231;-51
2021/09/27 13:36:31;;;;;;;16.40;14.85;;;;;;;23.87;57.94;101299.50;6142683;29;20195;-54
2021/09/27 13:39:55;;;;;;;14.90;13.48;;;;;;;24.49;55.81;101294.94;6149406;28;20227;-53
2021/09/27 13:43:22;;;;;;;16.70;15.18;;;;;;;25.23;53.76;101294.94;6141416;28;20257;-53
2021/09/27 13:46:43;;;;;;;15.63;14.32;;;;;;;24.12;56.81;101299.78;6142866;28;20964;-47
2021/09/27 13:50:05;;;;;;;16.05;14.85;;;;;;;24.33;55.96;101288.81;6145057;29;20212;-52
2021/09/27 13:53:29;;;;;;;14.43;12.93;;;;;;;25.05;53.62;101295.13;6140680;28;20234;-54
2021/09/27 13:56:51;;;;;;;13.85;12.75;;;;;;;26.68;50.13;101292.47;6143952;28;20235;-52
2021/09/27 14:00:14;;;;;;;13.23;12.18;;;;;;;26.26;50.94;101297.09;6135624;28;20228;-50
2021/09/27 14:03:35;;;;;;;12.95;11.95;;;;;;;24.85;53.88;101292.81;6136774;28;20231;-51
2021/09/27 14:06:56;;;;;;;13.02;11.88;;;;;;;24.19;56.14;101289.63;6136449;28;20235;-53
2021/09/27 14:10:17;;;;;;;13.80;12.60;;;;;;;23.35;59.26;101297.94;6143495;29;20207;-51
2021/09/27 14:13:41;;;;;;;12.90;11.57;;;;;;;23.21;59.38;101301.34;6121021;28;20223;-52
2021/09/27 14:17:15;;;;;;;12.30;11.18;;;;;;;23.62;57.92;101284.91;6119745;28;20263;-51
2021/09/27 14:20:36;;;;;;;11.35;10.55;;;;;;;23.59;58.01;101279.75;6128551;29;20302;-53
2021/09/27 14:24:18;;;;;;;13.32;11.88;;;;;;;24.00;57.54;101287.22;6118771;28;20227;-53
2021/09/27 14:27:40;;;;;;;12.05;10.32;;;;;;;23.41;58.43;101294.09;6130176;29;20231;-53
2021/09/27 14:31:04;;;;;;;11.60;10.60;;;;;;;23.69;57.78;101280.97;6130281;28;20230;-54
2021/09/27 14:34:25;;;;;;;10.50;9.75;;;;;;;23.63;56.76;101297.25;6133507;28;20537;-53
2021/09/27 14:37:47;;;;;;;10.27;9.35;;;;;;;23.87;57.30;101300.34;6129402;28;20524;-51
2021/09/27 14:41:08;;;;;;;9.45;8.75;;;;;;;23.94;57.16;101290.22;6125497;28;20564;-50
2021/09/27 14:44:30;;;;;;;9.85;9.05;;;;;;;22.78;59.93;101298.31;6128193;29;20544;-52
2021/09/27 14:47:52;;;;;;;10.73;9.63;;;;;;;22.99;60.02;101298.94;6133062;28;20235;-52
2021/09/27 14:51:13;;;;;;;10.68;9.85;;;;;;;23.48;57.76;101298.97;6128381;29;20231;-49
2021/09/27 14:54:34;;;;;;;10.52;9.63;;;;;;;24.39;56.00;101291.13;6134332;29;20224;-51
2021/09/27 14:57:55;;;;;;;10.07;9.38;;;;;;;23.48;57.72;101303.44;6135494;28;20256;-54
2021/09/27 15:01:16;;;;;;;10.38;9.40;;;;;;;23.06;59.95;101303.03;6137718;28;20212;-48
2021/09/27 15:04:38;;;;;;;10.15;9.15;;;;;;;23.37;58.77;101298.72;6127722;28;20250;-49
2021/09/27 15:08:00;;;;;;;8.93;8.23;;;;;;;23.06;59.76;101307.50;6139443;28;20219;-49
2021/09/27 15:11:21;;;;;;;9.77;8.98;;;;;;;23.17;59.90;101305.13;6141869;28;20192;-55
2021/09/27 15:14:42;;;;;;;9.43;8.65;;;;;;;22.74;61.13;101307.34;6145516;28;20220;-52
2021/09/27 15:18:03;;;;;;;9.52;8.70;;;;;;;22.83;61.11;101301.56;6143083;28;20223;-53
2021/09/27 15:21:26;;;;;;;9.32;8.45;;;;;;;23.07;60.14;101306.53;6142668;29;20600;-54
2021/09/27 15:24:47;;;;;;;9.65;8.85;;;;;;;22.71;60.40;101303.06;6143232;29;20223;-52
2021/09/27 15:28:09;;;;;;;9.60;8.80;;;;;;;22.50;60.62;101314.81;6133198;28;20240;-53
2021/09/27 15:31:32;;;;;;;8.80;8.02;;;;;;;21.95;62.15;101319.25;6135363;29;20294;-55
2021/09/27 15:34:52;;;;;;;8.82;8.02;;;;;;;22.36;60.79;101319.03;6134441;28;20223;-50
2021/09/27 15:38:20;;;;;;;8.02;7.45;;;;;;;22.35;60.66;101312.00;6135147;28;20227;-49
2021/09/27 15:41:41;;;;;;;9.73;8.85;;;;;;;22.59;60.59;101315.19;6138679;28;20239;-49
2021/09/27 15:45:04;;;;;;;10.00;9.20;;;;;;;22.25;61.69;101323.16;6137137;29;20188;-52